Melrose, Minnesota
Current Conditions -  °F | °C
As of 7:33 AM on Wednesday 22 Oct 2014 (Local Time) from KD39 Reporting Station
Overcast Overcast  
Wind Chill: 36°   Ceiling: 4600
Heat Index: 44°   Visibility: 10mi
Dew Point: 37°   Wind: 18mph
Humidity: 77%   Direction: 130°SE
Pressure: 30.06"   Gusts: 22mph
Location:  45.67°N, 94.81°W
Report Text: KD39 221233Z AUTO 13016G19KT 10SM OVC046 07/03 A3006 RMK AO2 T00680030
Loading
Personal Weather Stations






























Interactive Weather Map New forecast layout! Learn more

10-Day Weather Forecast

Advertisements
Track Severe Weather on mobile